Time;durP1;ratioP1;P1;durP2;ratioP2;P2;SDS_P1;SDS_P2;PMS_P1;PMS_P2;Temp;Humidity;BMP_temperature;BMP_pressure;BME280_temperature;BME280_humidity;BME280_pressure;Samples;Min_cycle;Max_cycle;Signal;HPM_P1;HPM_P2
2023/01/09 00:02:19;;;;;;;25.45;14.20;;;;;;;9.87;59.72;99086.91;4307702;33;20123;-87
2023/01/09 00:04:44;;;;;;;25.52;12.77;;;;;;;9.68;59.72;99094.56;4300110;33;20104;-90
2023/01/09 00:07:09;;;;;;;24.48;13.88;;;;;;;9.76;59.72;99093.37;4322021;33;20107;-91
2023/01/09 00:09:35;;;;;;;28.00;13.25;;;;;;;9.51;59.71;99100.44;4312066;33;20146;-90
2023/01/09 00:12:01;;;;;;;26.77;14.70;;;;;;;9.59;59.72;99102.72;4309535;33;20135;-90
2023/01/09 00:14:27;;;;;;;26.17;13.77;;;;;;;9.76;59.72;99095.97;4321774;33;20127;-89
2023/01/09 00:16:55;;;;;;;27.95;13.93;;;;;;;9.79;59.73;99087.22;4321355;33;20138;-90
2023/01/09 00:19:20;;;;;;;24.83;13.90;;;;;;;9.51;59.71;99090.03;4309636;33;20100;-91
2023/01/09 00:21:46;;;;;;;27.98;14.20;;;;;;;9.61;59.71;99082.72;4312343;33;20458;-90
2023/01/09 00:24:11;;;;;;;24.12;13.57;;;;;;;9.59;59.71;99081.94;4308357;33;20126;-90
2023/01/09 00:26:37;;;;;;;27.52;13.52;;;;;;;9.60;59.71;99088.84;4321408;33;20114;-90
2023/01/09 00:29:02;;;;;;;23.67;13.07;;;;;;;9.60;59.71;99083.62;4321668;33;20391;-89
2023/01/09 00:31:28;;;;;;;29.23;14.43;;;;;;;9.62;59.71;99077.47;4312344;33;20119;-90
2023/01/09 00:34:01;;;;;;;23.58;13.30;;;;;;;9.37;59.70;99081.91;4306531;33;20143;-90
2023/01/09 00:36:27;;;;;;;25.50;13.93;;;;;;;9.31;59.69;99082.16;4297251;33;20092;-89
2023/01/09 00:38:52;;;;;;;26.90;14.05;;;;;;;9.26;59.69;99081.50;4321537;33;20469;-90
2023/01/09 00:41:22;;;;;;;25.35;14.05;;;;;;;9.13;59.69;99071.53;4321420;33;20116;-90
2023/01/09 00:43:50;;;;;;;23.52;13.50;;;;;;;9.16;59.69;99078.37;4315688;33;20095;-90
2023/01/09 00:46:16;;;;;;;28.23;14.57;;;;;;;9.14;59.69;99081.03;4305476;33;20095;-89
2023/01/09 00:48:41;;;;;;;27.23;14.75;;;;;;;9.24;59.69;99073.75;4320702;33;20100;-88
2023/01/09 00:51:07;;;;;;;36.53;14.87;;;;;;;9.37;59.70;99064.56;4323999;33;20112;-88
2023/01/09 00:53:32;;;;;;;23.85;12.98;;;;;;;9.47;59.70;99070.28;4314535;33;20171;-89
2023/01/09 00:55:59;;;;;;;27.60;14.20;;;;;;;9.44;59.70;99066.03;4303965;33;20123;-87
2023/01/09 00:58:25;;;;;;;27.70;14.35;;;;;;;9.45;59.70;99065.13;4310427;33;20088;-88
2023/01/09 01:00:50;;;;;;;24.42;13.18;;;;;;;9.38;59.69;99063.66;4320775;33;20240;-88
2023/01/09 01:03:15;;;;;;;22.92;13.13;;;;;;;9.39;59.70;99054.97;4307249;33;20125;-88
2023/01/09 01:08:25;;;;;;;25.85;13.57;;;;;;;9.44;59.70;99053.03;4313983;33;20112;-88
2023/01/09 01:10:50;;;;;;;31.10;13.75;;;;;;;9.25;59.69;99059.03;4310222;33;20128;-88
2023/01/09 01:13:16;;;;;;;23.80;13.05;;;;;;;9.30;59.70;99052.75;4308021;33;20134;-88
2023/01/09 01:15:42;;;;;;;23.77;12.88;;;;;;;9.39;59.70;99049.78;4311676;33;20092;-89
2023/01/09 01:18:11;;;;;;;26.25;13.68;;;;;;;9.32;59.70;99047.47;4303934;33;20151;-88
2023/01/09 01:20:39;;;;;;;26.20;13.90;;;;;;;9.34;59.70;99045.69;4325058;33;20116;-90
2023/01/09 01:23:05;;;;;;;22.73;12.07;;;;;;;9.34;59.70;99054.31;4320213;33;20187;-88
2023/01/09 01:25:30;;;;;;;24.45;14.25;;;;;;;9.31;59.69;99051.84;4320059;33;20117;-87
2023/01/09 01:27:55;;;;;;;27.77;14.98;;;;;;;9.46;59.70;99043.47;4302651;33;20151;-89
2023/01/09 01:30:21;;;;;;;26.12;13.27;;;;;;;9.59;59.71;99040.37;4322300;33;20486;-89
2023/01/09 01:32:46;;;;;;;22.83;13.43;;;;;;;9.55;59.70;99031.84;4315245;33;20149;-89
2023/01/09 01:35:12;;;;;;;24.58;13.85;;;;;;;9.50;59.71;99032.03;4307774;33;20728;-89
2023/01/09 01:37:37;;;;;;;26.27;13.43;;;;;;;9.63;59.71;99019.41;4303246;33;20133;-89
2023/01/09 01:40:03;;;;;;;22.75;12.63;;;;;;;9.66;59.72;99014.06;4305993;33;20132;-89
2023/01/09 01:42:29;;;;;;;25.48;13.77;;;;;;;9.66;59.72;99010.63;4320000;33;20130;-89
2023/01/09 01:45:00;;;;;;;23.65;12.80;;;;;;;9.67;59.72;99015.78;4308596;33;20143;-89
2023/01/09 01:47:46;;;;;;;23.08;11.52;;;;;;;9.67;59.72;99002.78;4334191;33;20108;-89
2023/01/09 01:50:16;;;;;;;18.27;10.85;;;;;;;9.70;59.71;99004.41;4334607;33;20100;-90
2023/01/09 01:52:44;;;;;;;20.90;11.77;;;;;;;9.53;59.71;99005.94;4333717;33;20193;-88
2023/01/09 01:55:09;;;;;;;19.33;11.32;;;;;;;9.59;59.71;98998.81;4320495;33;20072;-89
2023/01/09 01:57:35;;;;;;;20.65;11.55;;;;;;;9.82;59.72;98990.91;4307185;33;20111;-88
2023/01/09 02:00:01;;;;;;;21.60;11.52;;;;;;;9.63;59.71;99000.38;4323119;33;20103;-90
2023/01/09 02:02:28;;;;;;;20.15;10.82;;;;;;;9.68;59.72;98985.44;4323075;33;20137;-90
2023/01/09 02:04:54;;;;;;;21.42;10.65;;;;;;;9.69;59.71;98987.97;4313349;33;20120;-90
2023/01/09 02:07:19;;;;;;;17.92;10.68;;;;;;;9.75;59.71;98979.94;4320505;33;20108;-90
2023/01/09 02:09:45;;;;;;;18.73;9.95;;;;;;;9.80;59.73;98982.34;4320048;33;20381;-90
2023/01/09 02:12:23;;;;;;;20.45;9.93;;;;;;;9.99;59.73;98975.47;4320665;33;20159;-89
2023/01/09 02:14:57;;;;;;;18.33;9.95;;;;;;;10.17;59.75;98968.62;4334226;33;20099;-90
2023/01/09 02:17:25;;;;;;;18.00;10.02;;;;;;;10.21;59.74;98959.84;4322450;33;20662;-92
2023/01/09 02:20:28;;;;;;;18.52;9.73;;;;;;;10.19;59.75;98958.19;4334946;33;20104;-91
2023/01/09 02:23:42;;;;;;;19.85;9.40;;;;;;;10.21;59.74;98951.19;4327849;33;20164;-91
2023/01/09 02:26:28;;;;;;;15.38;9.27;;;;;;;10.26;59.75;98949.25;4314298;33;20082;-90
2023/01/09 02:29:31;;;;;;;19.33;9.68;;;;;;;10.13;59.74;98949.72;4311984;33;20122;-89
2023/01/09 02:32:24;;;;;;;17.48;9.77;;;;;;;10.07;59.74;98950.00;4334850;33;20112;-89
2023/01/09 02:34:59;;;;;;;14.07;8.85;;;;;;;10.26;59.75;98949.25;4324814;33;20164;-89
2023/01/09 02:37:34;;;;;;;16.23;8.80;;;;;;;10.31;59.75;98947.28;4335023;33;20056;-89
2023/01/09 02:40:03;;;;;;;17.98;10.20;;;;;;;10.28;59.75;98947.41;4334825;33;20747;-88
2023/01/09 02:42:28;;;;;;;20.33;9.43;;;;;;;10.24;59.74;98948.47;4334946;33;20108;-89
2023/01/09 02:44:54;;;;;;;21.33;9.52;;;;;;;10.25;59.75;98945.78;4309230;33;20535;-89
2023/01/09 02:47:19;;;;;;;17.40;9.88;;;;;;;10.32;59.76;98942.00;4303521;33;20126;-89
2023/01/09 02:49:50;;;;;;;20.90;10.18;;;;;;;10.39;59.76;98938.22;4331677;33;20111;-88
2023/01/09 02:52:19;;;;;;;19.08;9.75;;;;;;;10.51;59.76;98933.41;4328482;33;20108;-89
2023/01/09 02:55:03;;;;;;;19.23;10.38;;;;;;;10.40;59.76;98934.69;4325132;33;20134;-89
2023/01/09 02:58:05;;;;;;;18.60;10.13;;;;;;;10.58;59.77;98922.62;4334634;33;20406;-89
2023/01/09 03:00:44;;;;;;;19.17;9.60;;;;;;;10.54;59.75;98921.09;4314723;33;20134;-88
2023/01/09 03:03:20;;;;;;;22.07;10.67;;;;;;;10.60;59.76;98914.75;4321687;33;20142;-88
2023/01/09 03:06:08;;;;;;;18.35;10.50;;;;;;;10.47;59.75;98908.44;4300719;33;20218;-86
2023/01/09 03:08:57;;;;;;;17.15;8.75;;;;;;;10.63;59.77;98906.81;4315793;33;20110;-88
2023/01/09 03:11:23;;;;;;;18.45;9.40;;;;;;;10.57;59.77;98909.69;4306803;33;20104;-89
2023/01/09 03:13:53;;;;;;;19.50;9.75;;;;;;;10.59;59.76;98903.50;4302257;33;20130;-90
2023/01/09 03:16:20;;;;;;;18.87;9.27;;;;;;;10.57;59.77;98907.09;4310241;33;20130;-87
2023/01/09 03:18:47;;;;;;;16.65;9.02;;;;;;;10.58;59.77;98909.63;4322248;33;20158;-89
2023/01/09 03:21:12;;;;;;;17.98;9.68;;;;;;;10.63;59.77;98909.41;4316485;33;20084;-89
2023/01/09 03:24:07;;;;;;;19.58;10.55;;;;;;;10.63;59.77;98905.03;4309761;33;20179;-89
2023/01/09 03:26:32;;;;;;;18.15;10.02;;;;;;;10.59;59.76;98900.91;4313671;33;20132;-89
2023/01/09 03:28:58;;;;;;;19.58;10.48;;;;;;;10.69;59.78;98894.38;4322381;33;20173;-89
2023/01/09 03:31:23;;;;;;;20.35;10.57;;;;;;;10.53;59.76;98901.19;4322466;33;20140;-89
2023/01/09 03:33:49;;;;;;;18.20;10.27;;;;;;;10.61;59.76;98896.47;4321142;33;20469;-88
2023/01/09 03:36:15;;;;;;;21.52;10.38;;;;;;;10.42;59.76;98898.25;4320845;33;20333;-89
2023/01/09 03:38:41;;;;;;;18.95;10.40;;;;;;;10.58;59.77;98893.16;4305908;33;20096;-89
2023/01/09 03:41:06;;;;;;;20.25;10.18;;;;;;;10.57;59.77;98883.66;4313299;33;20104;-90
2023/01/09 03:43:32;;;;;;;23.12;10.85;;;;;;;10.47;59.76;98898.88;4322311;33;20151;-89
2023/01/09 03:45:57;;;;;;;20.23;10.93;;;;;;;10.54;59.75;98886.41;4310162;33;20191;-90
2023/01/09 03:48:23;;;;;;;19.17;9.85;;;;;;;10.59;59.76;98881.84;4317930;33;20156;-90
2023/01/09 03:50:49;;;;;;;18.08;10.65;;;;;;;10.55;59.77;98873.34;4326808;33;20132;-88
2023/01/09 03:53:15;;;;;;;20.55;10.95;;;;;;;10.65;59.77;98876.38;4319339;33;20100;-88
2023/01/09 03:55:48;;;;;;;20.17;10.27;;;;;;;10.63;59.77;98878.19;4326927;33;20137;-88
2023/01/09 03:58:13;;;;;;;19.55;9.63;;;;;;;10.66;59.76;98884.12;4309124;33;20083;-89
2023/01/09 04:00:39;;;;;;;24.23;11.35;;;;;;;10.51;59.76;98878.75;4321975;33;20373;-89
2023/01/09 04:03:05;;;;;;;18.77;10.65;;;;;;;10.65;59.77;98877.22;4314752;33;20116;-90
2023/01/09 04:05:31;;;;;;;21.27;11.12;;;;;;;10.48;59.76;98877.12;4309917;33;20111;-90
2023/01/09 04:07:56;;;;;;;20.27;10.85;;;;;;;10.57;59.76;98875.88;4322368;33;20088;-91
2023/01/09 04:10:22;;;;;;;21.10;10.13;;;;;;;10.58;59.76;98875.78;4322219;33;20138;-90
2023/01/09 04:12:47;;;;;;;22.90;10.80;;;;;;;10.64;59.77;98872.06;4309686;33;20141;-90
2023/01/09 04:15:13;;;;;;;20.75;11.95;;;;;;;10.79;59.77;98875.72;4321680;33;20104;-90
2023/01/09 04:17:38;;;;;;;22.62;10.00;;;;;;;10.67;59.77;98862.38;4321569;33;20103;-91
2023/01/09 04:20:04;;;;;;;18.00;10.75;;;;;;;10.75;59.77;98872.41;4321747;33;20135;-87
2023/01/09 04:22:30;;;;;;;23.00;11.23;;;;;;;10.84;59.77;98878.94;4308510;33;20112;-88
2023/01/09 04:24:55;;;;;;;20.27;11.05;;;;;;;10.70;59.78;98877.00;4303503;33;20108;-88
2023/01/09 04:27:21;;;;;;;19.95;10.32;;;;;;;10.62;59.76;98879.09;4322015;33;20142;-90
2023/01/09 04:29:46;;;;;;;19.80;10.15;;;;;;;10.63;59.77;98892.03;4309557;33;20108;-90
2023/01/09 04:32:12;;;;;;;20.12;11.18;;;;;;;10.62;59.76;98882.53;4320988;33;20148;-87
2023/01/09 04:34:37;;;;;;;23.80;10.20;;;;;;;10.48;59.76;98884.94;4320614;33;20190;-88
2023/01/09 04:37:02;;;;;;;18.55;10.77;;;;;;;10.56;59.77;98892.38;4308848;33;20136;-88
2023/01/09 04:39:28;;;;;;;21.35;11.02;;;;;;;10.52;59.76;98888.25;4318408;33;20144;-88
2023/01/09 04:41:54;;;;;;;18.95;10.77;;;;;;;10.47;59.76;98885.84;4314362;33;20146;-88
2023/01/09 04:44:21;;;;;;;23.25;10.98;;;;;;;10.72;59.77;98885.59;4301428;33;20172;-89
2023/01/09 04:46:46;;;;;;;19.80;10.85;;;;;;;10.61;59.76;98875.66;4306563;33;20105;-89
2023/01/09 04:49:12;;;;;;;26.52;11.23;;;;;;;10.56;59.77;98880.22;4317943;33;20119;-89
2023/01/09 04:51:37;;;;;;;19.92;10.63;;;;;;;10.49;59.76;98873.63;4308602;33;20152;-88
2023/01/09 04:54:03;;;;;;;21.75;10.43;;;;;;;10.63;59.76;98875.56;4320649;33;20123;-89
2023/01/09 04:56:28;;;;;;;20.30;9.77;;;;;;;10.67;59.76;98874.53;4306283;33;20120;-89
2023/01/09 04:58:54;;;;;;;22.05;9.68;;;;;;;10.69;59.77;98880.53;4304206;33;20132;-89
2023/01/09 05:01:19;;;;;;;24.48;11.95;;;;;;;10.66;59.76;98876.31;4320025;33;20108;-89
2023/01/09 05:03:45;;;;;;;20.40;9.82;;;;;;;10.74;59.77;98873.34;4296127;33;20175;-87
2023/01/09 05:06:10;;;;;;;23.23;11.35;;;;;;;10.70;59.77;98883.03;4319387;33;20148;-88
2023/01/09 05:08:35;;;;;;;20.37;10.70;;;;;;;10.73;59.77;98880.31;4320028;33;20092;-88
2023/01/09 05:11:01;;;;;;;21.60;10.30;;;;;;;10.84;59.77;98877.19;4307827;33;20142;-87
2023/01/09 05:13:26;;;;;;;19.00;10.93;;;;;;;10.76;59.77;98876.72;4320644;33;20088;-89
2023/01/09 05:15:52;;;;;;;18.58;10.80;;;;;;;10.72;59.77;98870.81;4320296;33;20092;-88
2023/01/09 05:18:17;;;;;;;18.65;10.40;;;;;;;10.69;59.77;98864.91;4292689;33;20576;-90
2023/01/09 05:20:43;;;;;;;22.50;11.32;;;;;;;10.68;59.77;98864.06;4307785;33;20124;-88
2023/01/09 05:23:08;;;;;;;20.80;10.27;;;;;;;10.65;59.77;98863.38;4320862;33;20596;-88
2023/01/09 05:25:33;;;;;;;19.65;11.12;;;;;;;10.60;59.76;98854.91;4323136;33;20509;-88
2023/01/09 05:28:00;;;;;;;20.55;10.00;;;;;;;10.55;59.77;98855.13;4313493;33;20095;-88
2023/01/09 05:30:26;;;;;;;17.15;9.23;;;;;;;10.56;59.77;98858.56;4317994;33;20212;-86
2023/01/09 05:32:51;;;;;;;18.25;10.55;;;;;;;10.60;59.76;98857.50;4308166;33;20120;-88
2023/01/09 05:35:17;;;;;;;18.73;10.13;;;;;;;10.61;59.76;98861.78;4319988;33;20128;-87
2023/01/09 05:37:42;;;;;;;20.73;10.75;;;;;;;10.65;59.77;98864.22;4322573;33;20095;-89
2023/01/09 05:40:08;;;;;;;19.35;10.25;;;;;;;10.63;59.77;98865.16;4322819;33;20112;-87
2023/01/09 05:42:34;;;;;;;21.52;10.02;;;;;;;10.50;59.76;98871.88;4310636;33;20465;-89
2023/01/09 05:44:59;;;;;;;17.77;10.82;;;;;;;10.64;59.77;98880.72;4322520;33;20092;-88
2023/01/09 05:47:24;;;;;;;18.50;10.75;;;;;;;10.58;59.77;98877.56;4314607;33;20096;-89
2023/01/09 05:49:50;;;;;;;17.52;10.25;;;;;;;10.62;59.76;98866.91;4318891;33;20105;-89
2023/01/09 05:52:15;;;;;;;17.62;10.43;;;;;;;10.63;59.77;98867.75;4322843;33;20129;-88
2023/01/09 05:54:41;;;;;;;18.70;10.75;;;;;;;10.70;59.77;98867.44;4322988;33;20339;-90
2023/01/09 05:57:06;;;;;;;18.02;10.30;;;;;;;10.78;59.77;98859.25;4302168;33;20108;-89
2023/01/09 05:59:32;;;;;;;21.25;10.05;;;;;;;10.63;59.77;98853.00;4307307;33;20140;-90
2023/01/09 06:01:57;;;;;;;22.62;10.77;;;;;;;10.63;59.77;98860.81;4321553;33;20099;-87
2023/01/09 06:04:23;;;;;;;18.20;10.05;;;;;;;10.59;59.76;98856.66;4307966;33;20096;-87
2023/01/09 06:06:48;;;;;;;18.00;10.15;;;;;;;10.55;59.77;98865.53;4300690;33;20107;-85
2023/01/09 06:09:14;;;;;;;20.02;11.40;;;;;;;10.55;59.76;98869.88;4310249;33;20471;-90
2023/01/09 06:11:39;;;;;;;19.33;10.27;;;;;;;10.51;59.76;98876.16;4316404;33;20158;-89
2023/01/09 06:14:05;;;;;;;20.92;10.75;;;;;;;10.64;59.77;98872.06;4306666;33;20114;-88
2023/01/09 06:16:30;;;;;;;16.30;9.80;;;;;;;10.55;59.77;98875.94;4310035;33;20111;-89
2023/01/09 06:18:56;;;;;;;16.42;9.55;;;;;;;10.75;59.77;98873.25;4322333;33;20486;-88
2023/01/09 06:21:21;;;;;;;20.45;11.10;;;;;;;10.82;59.78;98878.19;4316074;33;20133;-87
2023/01/09 06:23:47;;;;;;;18.60;10.73;;;;;;;10.85;59.77;98880.63;4316187;33;20348;-88
2023/01/09 06:26:12;;;;;;;19.45;10.35;;;;;;;10.95;59.79;98874.94;4311882;33;20457;-88
2023/01/09 06:28:38;;;;;;;19.12;9.98;;;;;;;10.74;59.77;98879.38;4322416;33;20113;-88
2023/01/09 06:31:04;;;;;;;19.48;10.55;;;;;;;10.85;59.78;98876.25;4322220;33;20112;-89
2023/01/09 06:33:29;;;;;;;20.02;11.35;;;;;;;10.87;59.78;98884.00;4312425;33;20077;-88
2023/01/09 06:35:54;;;;;;;20.35;10.38;;;;;;;10.75;59.77;98878.47;4315523;33;20143;-89
2023/01/09 06:38:20;;;;;;;20.17;10.82;;;;;;;10.89;59.78;98887.41;4319052;33;20103;-89
2023/01/09 06:40:45;;;;;;;20.52;11.23;;;;;;;10.91;59.78;98881.22;4322695;33;20173;-89
2023/01/09 06:43:11;;;;;;;17.75;10.35;;;;;;;10.64;59.77;98883.31;4322237;33;20100;-89
2023/01/09 06:45:36;;;;;;;20.58;10.48;;;;;;;10.78;59.78;98880.09;4315240;33;20108;-90
2023/01/09 06:48:02;;;;;;;21.55;10.77;;;;;;;10.71;59.77;98882.13;4319753;33;20157;-89
2023/01/09 06:50:27;;;;;;;22.77;11.50;;;;;;;10.74;59.77;98881.16;4315103;33;20159;-89
2023/01/09 06:52:53;;;;;;;20.92;11.52;;;;;;;10.53;59.76;98887.34;4319925;33;20135;-90
2023/01/09 06:55:18;;;;;;;21.27;11.45;;;;;;;10.72;59.77;98883.81;4322422;33;20131;-89
2023/01/09 06:57:44;;;;;;;18.50;10.40;;;;;;;10.72;59.77;98876.00;4322265;33;20096;-89
2023/01/09 07:00:10;;;;;;;20.25;10.60;;;;;;;10.57;59.77;98868.06;4310309;33;20171;-88
2023/01/09 07:02:35;;;;;;;23.15;11.73;;;;;;;10.66;59.77;98872.84;4312989;33;20089;-89
2023/01/09 07:05:01;;;;;;;19.10;11.18;;;;;;;10.56;59.77;98881.97;4330719;33;20159;-88
2023/01/09 07:07:27;;;;;;;19.58;10.35;;;;;;;10.57;59.77;98879.31;4321876;33;20120;-89
2023/01/09 07:09:52;;;;;;;20.10;10.80;;;;;;;10.57;59.76;98873.25;4317127;33;20116;-88
2023/01/09 07:12:18;;;;;;;19.00;11.20;;;;;;;10.58;59.77;98878.38;4316244;33;20163;-89
2023/01/09 07:14:43;;;;;;;19.08;10.50;;;;;;;10.61;59.76;98872.19;4309921;33;20099;-87
2023/01/09 07:17:11;;;;;;;19.37;10.77;;;;;;;10.54;59.76;98868.19;4322185;33;20147;-90
2023/01/09 07:19:36;;;;;;;25.20;10.82;;;;;;;10.40;59.76;98874.88;4301201;33;20243;-89
2023/01/09 07:22:02;;;;;;;18.98;11.18;;;;;;;10.47;59.75;98879.81;4320790;33;20167;-89
2023/01/09 07:24:27;;;;;;;21.40;10.43;;;;;;;10.46;59.75;98881.56;4308851;33;20123;-89
2023/01/09 07:26:53;;;;;;;20.83;11.25;;;;;;;10.47;59.75;98877.22;4320190;33;20142;-90
2023/01/09 07:29:18;;;;;;;18.65;10.57;;;;;;;10.48;59.76;98877.12;4306290;33;20116;-88
2023/01/09 07:31:43;;;;;;;20.50;11.12;;;;;;;10.50;59.76;98875.31;4304545;33;20174;-89
2023/01/09 07:34:09;;;;;;;22.35;10.82;;;;;;;10.49;59.76;98875.38;4320655;33;20110;-90
2023/01/09 07:36:34;;;;;;;19.00;11.15;;;;;;;10.47;59.76;98865.03;4319087;33;20175;-88
2023/01/09 07:39:00;;;;;;;20.33;10.63;;;;;;;10.59;59.76;98864.47;4320927;33;20214;-89
2023/01/09 07:41:25;;;;;;;21.48;11.43;;;;;;;10.57;59.77;98855.03;4310538;33;20166;-89
2023/01/09 07:43:51;;;;;;;19.33;10.40;;;;;;;10.55;59.76;98843.88;4320766;33;20138;-89
2023/01/09 07:46:16;;;;;;;19.75;10.32;;;;;;;10.60;59.76;98844.50;4310758;33;20212;-89
2023/01/09 07:48:41;;;;;;;25.98;11.68;;;;;;;10.51;59.76;98850.13;4320899;33;20115;-89
2023/01/09 07:51:09;;;;;;;18.05;10.90;;;;;;;10.54;59.76;98845.62;4308363;33;20118;-90
2023/01/09 07:53:34;;;;;;;20.83;11.12;;;;;;;10.72;59.77;98846.53;4308856;33;20130;-89
2023/01/09 07:56:00;;;;;;;17.45;9.98;;;;;;;10.53;59.76;98841.34;4320726;33;20115;-89
2023/01/09 07:58:25;;;;;;;19.83;10.90;;;;;;;10.61;59.76;98838.38;4320376;33;20122;-90
2023/01/09 08:00:51;;;;;;;18.83;9.82;;;;;;;10.41;59.76;98841.91;4320475;33;20145;-89
2023/01/09 08:03:16;;;;;;;18.10;9.98;;;;;;;10.48;59.76;98843.31;4308578;33;20496;-90
2023/01/09 08:05:41;;;;;;;17.62;10.13;;;;;;;10.45;59.76;98836.50;4320418;33;20120;-90
2023/01/09 08:08:07;;;;;;;16.05;9.77;;;;;;;10.37;59.75;98832.53;4320828;33;20126;-90
2023/01/09 08:10:32;;;;;;;17.23;10.60;;;;;;;10.09;59.74;98828.56;4320725;33;20099;-90
2023/01/09 08:12:58;;;;;;;20.58;10.35;;;;;;;10.19;59.75;98838.56;4308141;33;20120;-89
2023/01/09 08:15:23;;;;;;;20.83;11.07;;;;;;;10.20;59.74;98848.06;4320535;33;20167;-90
2023/01/09 08:17:49;;;;;;;18.00;10.65;;;;;;;10.24;59.74;98862.62;4320387;33;20103;-89
2023/01/09 08:20:15;;;;;;;19.50;10.27;;;;;;;10.27;59.75;98878.09;4320570;33;20485;-89
2023/01/09 08:22:41;;;;;;;19.17;10.77;;;;;;;10.19;59.75;98851.56;4308208;33;20123;-90
2023/01/09 08:25:07;;;;;;;21.48;11.68;;;;;;;10.22;59.74;98854.06;4308453;33;20489;-89
2023/01/09 08:27:33;;;;;;;21.52;12.50;;;;;;;10.28;59.75;98858.97;4308584;33;20116;-90
2023/01/09 08:29:58;;;;;;;19.42;11.12;;;;;;;10.42;59.76;98849.66;4307970;33;20513;-90
2023/01/09 08:32:24;;;;;;;20.60;10.25;;;;;;;10.26;59.75;98848.66;4320608;33;20115;-89
2023/01/09 08:34:50;;;;;;;24.33;12.37;;;;;;;10.38;59.75;98834.22;4320591;33;20107;-89
2023/01/09 08:37:15;;;;;;;26.40;12.37;;;;;;;10.26;59.75;98847.81;4305431;33;20174;-89
2023/01/09 08:39:41;;;;;;;21.73;11.93;;;;;;;10.14;59.73;98847.38;4315533;33;20143;-89
2023/01/09 08:47:35;;;;;;;21.08;11.05;;;;;;;10.02;59.73;98852.31;4316812;33;20210;-89
2023/01/09 08:50:00;;;;;;;24.40;11.27;;;;;;;9.98;59.73;98845.56;4305177;33;20954;-89
2023/01/09 08:52:26;;;;;;;24.77;11.75;;;;;;;10.03;59.74;98857.44;4314834;33;20190;-90
2023/01/09 08:54:51;;;;;;;19.60;10.57;;;;;;;10.13;59.74;98850.91;4319598;33;20187;-90
2023/01/09 08:57:17;;;;;;;19.40;10.60;;;;;;;10.10;59.74;98845.84;4319748;33;20107;-90
2023/01/09 08:59:42;;;;;;;23.30;11.15;;;;;;;10.14;59.74;98841.34;4308948;33;20125;-89
2023/01/09 09:02:08;;;;;;;17.87;10.73;;;;;;;9.91;59.73;98837.16;4297039;33;20114;-89
2023/01/09 09:04:34;;;;;;;22.75;11.90;;;;;;;10.04;59.74;98827.09;4295776;33;20115;-89
2023/01/09 09:06:59;;;;;;;19.87;11.30;;;;;;;9.99;59.73;98834.25;4307541;33;20377;-89
2023/01/09 09:09:24;;;;;;;19.05;10.35;;;;;;;9.88;59.74;98833.84;4317883;33;20217;-89
2023/01/09 09:11:50;;;;;;;23.73;12.13;;;;;;;9.88;59.73;98834.69;4309621;33;20171;-89
2023/01/09 09:17:07;;;;;;;20.70;11.45;;;;;;;9.75;59.72;98836.16;4325817;33;20187;-89
2023/01/09 09:19:33;;;;;;;22.02;11.50;;;;;;;9.78;59.72;98826.47;4307507;33;20105;-89
2023/01/09 09:21:58;;;;;;;19.20;11.10;;;;;;;9.74;59.72;98816.28;4319403;33;20119;-89
2023/01/09 09:24:24;;;;;;;23.25;11.48;;;;;;;9.67;59.72;98820.03;4319754;33;20138;-89
2023/01/09 09:26:49;;;;;;;23.83;11.35;;;;;;;9.73;59.72;98819.78;4305165;33;20402;-89
2023/01/09 09:29:14;;;;;;;20.85;11.57;;;;;;;9.75;59.72;98820.56;4331856;33;20123;-90
2023/01/09 09:31:40;;;;;;;24.80;12.35;;;;;;;9.60;59.71;98819.47;4319466;33;20108;-89
2023/01/09 09:34:06;;;;;;;20.92;10.93;;;;;;;9.54;59.71;98815.38;4319401;33;20165;-89
2023/01/09 09:36:31;;;;;;;22.20;11.10;;;;;;;9.50;59.71;98806.03;4321040;33;20112;-90
2023/01/09 09:38:56;;;;;;;21.15;11.07;;;;;;;9.52;59.71;98809.41;4321660;33;20100;-90
2023/01/09 09:47:15;;;;;;;22.90;12.05;;;;;;;9.52;59.71;98803.38;4325705;33;20126;-89
2023/01/09 09:50:04;;;;;;;21.05;11.12;;;;;;;9.42;59.70;98802.06;4309797;33;20084;-90
2023/01/09 09:52:41;;;;;;;24.10;12.07;;;;;;;9.45;59.70;98797.56;4318695;33;20112;-90
2023/01/09 09:55:19;;;;;;;19.98;10.90;;;;;;;9.35;59.70;98803.22;4312965;33;20076;-90
2023/01/09 09:57:45;;;;;;;22.48;11.73;;;;;;;9.46;59.70;98798.41;4318921;33;20144;-90
2023/01/09 10:00:18;;;;;;;22.42;12.05;;;;;;;9.46;59.70;98809.69;4318878;33;20187;-89
2023/01/09 10:02:50;;;;;;;37.00;19.30;;;;;;;9.64;59.71;98807.19;4318945;33;20076;-90
2023/01/09 10:05:28;;;;;;;25.05;13.20;;;;;;;9.56;59.71;98806.69;4309771;33;20186;-89
2023/01/09 10:07:53;;;;;;;44.05;27.73;;;;;;;9.53;59.71;98802.47;4333510;33;20190;-90
2023/01/09 10:10:25;;;;;;;182.25;118.13;;;;;;;9.56;59.70;98799.72;4309140;33;20111;-90
2023/01/09 10:12:55;;;;;;;52.42;28.85;;;;;;;9.50;59.71;98790.44;4319050;33;20100;-90
2023/01/09 10:15:41;;;;;;;28.23;19.98;;;;;;;9.43;59.71;98795.94;4333615;33;20135;-90
2023/01/09 10:18:15;;;;;;;29.20;19.52;;;;;;;9.47;59.70;98790.59;4321340;33;20108;-90
2023/01/09 10:20:55;;;;;;;26.40;16.48;;;;;;;9.56;59.70;98794.53;4333433;33;20101;-90
2023/01/09 10:23:36;;;;;;;24.80;13.18;;;;;;;9.46;59.70;98780.22;4306817;33;20116;-90
2023/01/09 10:26:16;;;;;;;25.20;13.45;;;;;;;9.47;59.70;98777.59;4320265;33;20112;-90
2023/01/09 10:29:06;;;;;;;29.45;15.27;;;;;;;9.62;59.71;98772.63;4329887;33;20116;-89
2023/01/09 10:32:06;;;;;;;28.38;19.12;;;;;;;9.66;59.72;98774.19;4321262;33;20774;-89
2023/01/09 10:35:01;;;;;;;36.17;23.08;;;;;;;9.59;59.71;98770.16;4278092;33;20182;-91
2023/01/09 10:37:41;;;;;;;22.90;14.07;;;;;;;9.58;59.71;98768.47;4310395;33;20108;-90
2023/01/09 10:40:24;;;;;;;24.95;14.63;;;;;;;9.50;59.71;98755.84;4320831;33;20108;-90
2023/01/09 10:42:52;;;;;;;30.60;15.73;;;;;;;9.62;59.71;98751.84;4309420;33;20118;-90
2023/01/09 10:45:30;;;;;;;31.65;17.25;;;;;;;9.51;59.71;98749.72;4309024;33;20477;-90
2023/01/09 10:48:00;;;;;;;26.62;15.90;;;;;;;9.53;59.71;98750.50;4333285;33;20169;-90
2023/01/09 10:50:27;;;;;;;29.23;14.32;;;;;;;9.44;59.70;98741.34;4318796;33;20119;-90
2023/01/09 10:52:54;;;;;;;28.38;15.82;;;;;;;9.48;59.70;98740.31;4318540;33;20100;-90
2023/01/09 10:55:28;;;;;;;24.98;14.15;;;;;;;9.57;59.70;98733.03;4318271;33;20143;-90
2023/01/09 10:57:57;;;;;;;21.95;14.00;;;;;;;9.61;59.71;98714.63;4333147;33;20131;-89
2023/01/09 11:00:23;;;;;;;27.20;15.95;;;;;;;9.58;59.71;98712.16;4318821;33;20528;-89
2023/01/09 11:02:48;;;;;;;26.50;15.35;;;;;;;9.47;59.70;98709.22;4312405;33;20096;-91
2023/01/09 11:05:19;;;;;;;27.62;13.07;;;;;;;9.43;59.70;98708.47;4320953;33;20202;-90
2023/01/09 11:07:46;;;;;;;23.87;13.50;;;;;;;9.55;59.71;98707.13;4320281;33;20170;-90
2023/01/09 11:10:12;;;;;;;31.27;19.25;;;;;;;9.38;59.70;98705.25;4308815;33;20119;-90
2023/01/09 11:12:45;;;;;;;30.00;17.75;;;;;;;9.43;59.70;98695.50;4320903;33;20092;-90
2023/01/09 11:15:22;;;;;;;28.20;14.52;;;;;;;9.39;59.70;98696.53;4321273;33;20108;-91
2023/01/09 11:17:49;;;;;;;24.35;14.27;;;;;;;9.33;59.69;98694.22;4319156;33;20105;-89
2023/01/09 11:20:19;;;;;;;27.48;14.85;;;;;;;9.34;59.70;98698.50;4303449;33;20465;-90
2023/01/09 11:22:48;;;;;;;;;;;;;;;9.16;59.68;98704.50;4321037;33;20100;-89
2023/01/09 11:25:15;;;;;;;24.40;14.15;;;;;;;9.17;59.69;98701.81;4320872;33;19975;-91
2023/01/09 11:27:41;;;;;;;23.75;14.52;;;;;;;9.28;59.70;98703.97;4318317;33;20135;-89
2023/01/09 11:30:22;;;;;;;26.70;14.90;;;;;;;9.28;59.70;98692.75;4318812;33;20124;-90
2023/01/09 11:32:48;;;;;;;27.83;15.70;;;;;;;9.32;59.69;98686.50;4333306;33;20091;-90
2023/01/09 11:35:17;;;;;;;26.90;15.30;;;;;;;9.44;59.70;98683.34;4332986;33;20166;-90
2023/01/09 11:37:43;;;;;;;32.33;16.00;;;;;;;9.33;59.69;98685.59;4333056;33;20159;-90
2023/01/09 11:40:16;;;;;;;27.25;14.00;;;;;;;9.22;59.69;98681.69;4320696;33;20547;-90
2023/01/09 11:42:50;;;;;;;25.67;13.35;;;;;;;9.33;59.69;98681.25;4318496;33;20091;-90
2023/01/09 11:45:28;;;;;;;27.15;13.45;;;;;;;9.42;59.70;98682.56;4318741;33;20747;-90